Huntington, Indiana
Current Conditions -  °F | °C
As of 8:35 PM on Saturday 20 Dec 2014 (Local Time) from KHHG Reporting Station
Overcast Overcast  
Wind Chill: 30°   Ceiling: 3200
Heat Index: 30°   Visibility: 7mi
Dew Point: 28°   Wind: 0mph
Humidity: 90%   Direction: NA
Pressure: 30.28"   Gusts: NA
Location:  40.88°N, 85.49°W
Report Text: KHHG 210135Z AUTO 00000KT 7SM OVC032 M01/M02 A3028 RMK AO2 T10101025
Loading
Personal Weather Stations






























Interactive Weather Map New forecast layout! Learn more

10-Day Weather Forecast

Advertisements
Track Severe Weather on mobile